createdAt,value
2023-01-29T00:00:22.355Z,86.80
2023-01-29T00:01:22.348Z,86.80
2023-01-29T00:02:22.360Z,87.52
2023-01-29T00:03:22.381Z,87.42
2023-01-29T00:04:22.345Z,87.21
2023-01-29T00:05:28.200Z,87.32
2023-01-29T00:06:25.297Z,88.04
2023-01-29T00:07:22.258Z,87.94
2023-01-29T00:08:22.249Z,88.04
2023-01-29T00:09:22.232Z,87.63
2023-01-29T00:10:22.246Z,88.04
2023-01-29T00:11:22.203Z,88.04
2023-01-29T00:12:22.199Z,88.04
2023-01-29T00:13:22.185Z,87.94
2023-01-29T00:14:22.162Z,87.94
2023-01-29T00:15:22.210Z,88.15
2023-01-29T00:16:22.142Z,88.25
2023-01-29T00:17:22.145Z,88.15
2023-01-29T00:18:22.112Z,88.35
2023-01-29T00:19:22.094Z,88.25
2023-01-29T00:20:22.078Z,88.25
2023-01-29T00:21:22.254Z,88.35
2023-01-29T00:22:22.063Z,88.35
2023-01-29T00:23:22.041Z,88.46
2023-01-29T00:24:22.101Z,88.25
2023-01-29T00:25:25.013Z,88.67
2023-01-29T00:26:25.183Z,88.46
2023-01-29T00:27:21.985Z,88.67
2023-01-29T00:28:21.974Z,88.46
2023-01-29T00:29:22.020Z,88.87
2023-01-29T00:30:21.961Z,88.87
2023-01-29T00:31:22.076Z,88.67
2023-01-29T00:32:22.126Z,88.67
2023-01-29T00:33:21.907Z,88.56
2023-01-29T00:34:21.902Z,88.56
2023-01-29T00:35:21.874Z,88.77
2023-01-29T00:36:21.885Z,88.98
2023-01-29T00:37:21.870Z,88.87
2023-01-29T00:38:21.895Z,88.77
2023-01-29T00:39:24.929Z,88.87
2023-01-29T00:40:22.810Z,88.77
2023-01-29T00:41:21.806Z,88.56
2023-01-29T00:42:21.807Z,88.98
2023-01-29T00:43:21.776Z,88.56
2023-01-29T00:44:21.760Z,88.46
2023-01-29T00:45:24.750Z,88.35
2023-01-29T00:46:24.804Z,88.77
2023-01-29T00:47:21.742Z,88.87
2023-01-29T00:48:21.766Z,88.87
2023-01-29T00:49:21.689Z,88.67
2023-01-29T00:50:21.690Z,88.56
2023-01-29T00:51:21.649Z,88.46
2023-01-29T00:52:21.657Z,88.35
2023-01-29T00:53:21.628Z,88.35
2023-01-29T00:54:21.648Z,88.35
2023-01-29T00:55:22.351Z,88.87
2023-01-29T00:56:21.588Z,89.18
2023-01-29T00:57:21.566Z,88.77
2023-01-29T00:58:21.579Z,88.56
2023-01-29T00:59:21.577Z,88.77
2023-01-29T01:00:21.549Z,88.77
2023-01-29T01:01:21.520Z,88.56
2023-01-29T01:02:21.569Z,88.46
2023-01-29T01:03:21.509Z,88.15
2023-01-29T01:04:21.502Z,88.15
2023-01-29T01:05:24.462Z,87.94
2023-01-29T01:06:24.477Z,87.84
2023-01-29T01:07:21.441Z,87.73
2023-01-29T01:08:21.430Z,87.84
2023-01-29T01:09:21.597Z,88.04
2023-01-29T01:10:21.398Z,87.73
2023-01-29T01:11:21.383Z,87.52
2023-01-29T01:12:21.377Z,87.11
2023-01-29T01:13:21.363Z,87.11
2023-01-29T01:14:21.353Z,86.80
2023-01-29T01:15:21.375Z,86.69
2023-01-29T01:16:21.351Z,86.38
2023-01-29T01:17:21.307Z,86.17
2023-01-29T01:18:21.296Z,86.17
2023-01-29T01:19:21.273Z,86.07
2023-01-29T01:20:21.314Z,85.65
2023-01-29T01:21:21.244Z,85.24
2023-01-29T01:22:21.230Z,85.03
2023-01-29T01:23:21.226Z,85.13
2023-01-29T01:24:21.275Z,84.92
2023-01-29T01:25:24.236Z,84.82
2023-01-29T01:26:24.196Z,84.51
2023-01-29T01:27:21.164Z,84.30
2023-01-29T01:28:21.155Z,83.99
2023-01-29T01:29:21.137Z,83.89
2023-01-29T01:30:21.128Z,83.68
2023-01-29T01:31:21.291Z,83.78
2023-01-29T01:32:21.098Z,83.58
2023-01-29T01:33:21.079Z,83.58
2023-01-29T01:34:21.063Z,83.58
2023-01-29T01:35:21.075Z,83.58
2023-01-29T01:36:21.219Z,83.68
2023-01-29T01:37:21.028Z,83.89
2023-01-29T01:38:21.038Z,83.99
2023-01-29T01:39:21.007Z,83.89
2023-01-29T01:40:20.988Z,83.78
2023-01-29T01:41:20.998Z,84.20
2023-01-29T01:42:20.978Z,84.20
2023-01-29T01:43:20.955Z,84.09
2023-01-29T01:44:20.929Z,84.41
2023-01-29T01:45:23.920Z,83.99
2023-01-29T01:46:23.937Z,83.99
2023-01-29T01:47:20.935Z,84.30
2023-01-29T01:48:20.880Z,84.20
2023-01-29T01:49:20.858Z,84.30
2023-01-29T01:50:20.860Z,84.30
2023-01-29T01:51:20.832Z,84.41
2023-01-29T01:52:20.892Z,84.30
2023-01-29T01:53:20.808Z,84.20
2023-01-29T01:54:20.791Z,84.09
2023-01-29T01:55:20.779Z,83.78
2023-01-29T01:56:20.759Z,83.99
2023-01-29T01:57:20.759Z,84.30
2023-01-29T01:58:20.799Z,84.09
2023-01-29T01:59:20.730Z,84.20
2023-01-29T02:00:20.718Z,84.51
2023-01-29T02:01:20.764Z,84.51
2023-01-29T02:02:20.741Z,83.89
2023-01-29T02:03:20.683Z,83.99
2023-01-29T02:04:20.695Z,84.30
2023-01-29T02:05:23.643Z,84.51
2023-01-29T02:06:23.646Z,84.41
2023-01-29T02:07:20.612Z,84.51
2023-01-29T02:08:20.642Z,84.30
2023-01-29T02:09:20.594Z,84.20
2023-01-29T02:10:20.575Z,84.30
2023-01-29T02:11:20.571Z,84.82
2023-01-29T02:12:20.556Z,84.61
2023-01-29T02:13:20.562Z,84.92
2023-01-29T02:14:20.522Z,85.34
2023-01-29T02:15:20.512Z,85.44
2023-01-29T02:16:20.498Z,85.59
2023-01-29T02:17:20.654Z,85.69
2023-01-29T02:18:20.498Z,85.90
2023-01-29T02:19:20.521Z,86.21
2023-01-29T02:20:20.441Z,86.32
2023-01-29T02:21:20.433Z,86.21
2023-01-29T02:22:20.408Z,85.69
2023-01-29T02:23:20.395Z,85.69
2023-01-29T02:24:20.560Z,85.90
2023-01-29T02:25:23.396Z,85.17
2023-01-29T02:26:23.372Z,85.38
2023-01-29T02:27:20.344Z,85.17
2023-01-29T02:28:20.331Z,85.28
2023-01-29T02:29:20.330Z,85.38
2023-01-29T02:30:20.333Z,85.28
2023-01-29T02:31:20.474Z,85.06
2023-01-29T02:32:20.307Z,84.86
2023-01-29T02:33:20.273Z,84.86
2023-01-29T02:34:20.252Z,85.17
2023-01-29T02:35:20.253Z,85.28
2023-01-29T02:36:20.230Z,85.17
2023-01-29T02:37:20.241Z,85.38
2023-01-29T02:38:20.199Z,85.59
2023-01-29T02:39:20.187Z,85.63
2023-01-29T02:40:20.169Z,85.83
2023-01-29T02:41:20.154Z,85.73
2023-01-29T02:42:20.193Z,85.73
2023-01-29T02:43:20.127Z,85.83
2023-01-29T02:44:20.119Z,85.63
2023-01-29T02:45:23.107Z,85.94
2023-01-29T02:46:23.114Z,85.83
2023-01-29T02:47:20.075Z,85.83
2023-01-29T02:48:20.109Z,85.83
2023-01-29T02:49:20.047Z,85.94
2023-01-29T02:50:20.029Z,85.73
2023-01-29T02:51:20.031Z,86.04
2023-01-29T02:52:20.029Z,85.94
2023-01-29T02:53:20.053Z,86.25
2023-01-29T02:54:19.984Z,86.25
2023-01-29T02:55:19.971Z,86.35
2023-01-29T02:56:19.941Z,86.35
2023-01-29T02:57:19.933Z,86.35
2023-01-29T02:58:19.932Z,86.15
2023-01-29T02:59:19.944Z,86.15
2023-01-29T03:00:19.901Z,86.46
2023-01-29T03:01:19.951Z,86.35
2023-01-29T03:02:19.955Z,86.25
2023-01-29T03:03:19.930Z,86.25
2023-01-29T03:04:19.840Z,86.15
2023-01-29T03:05:22.833Z,86.15
2023-01-29T03:06:22.853Z,86.25
2023-01-29T03:07:19.797Z,85.83
2023-01-29T03:08:19.785Z,85.94
2023-01-29T03:09:19.799Z,85.63
2023-01-29T03:10:19.755Z,85.63
2023-01-29T03:11:19.745Z,85.42
2023-01-29T03:12:20.261Z,85.31
2023-01-29T03:13:19.800Z,85.52
2023-01-29T03:14:19.726Z,85.31
2023-01-29T03:15:19.696Z,85.73
2023-01-29T03:16:19.682Z,85.31
2023-01-29T03:17:19.666Z,85.42
2023-01-29T03:18:19.650Z,85.52
2023-01-29T03:19:19.657Z,85.42
2023-01-29T03:20:19.822Z,86.04
2023-01-29T03:21:19.610Z,85.94
2023-01-29T03:22:19.604Z,85.83
2023-01-29T03:23:19.608Z,85.83
2023-01-29T03:24:19.580Z,85.83
2023-01-29T03:25:22.550Z,85.83
2023-01-29T03:26:22.576Z,86.35
2023-01-29T03:27:19.528Z,86.35
2023-01-29T03:28:19.536Z,86.25
2023-01-29T03:29:19.509Z,86.15
2023-01-29T03:30:19.527Z,86.46
2023-01-29T03:31:19.535Z,86.46
2023-01-29T03:32:19.459Z,86.98
2023-01-29T03:33:19.441Z,86.88
2023-01-29T03:34:19.423Z,86.67
2023-01-29T03:35:19.407Z,86.77
2023-01-29T03:36:19.449Z,87.15
2023-01-29T03:37:19.410Z,87.19
2023-01-29T03:38:19.399Z,87.40
2023-01-29T03:39:19.351Z,87.50
2023-01-29T03:40:19.643Z,87.66
2023-01-29T03:41:19.323Z,87.66
2023-01-29T03:42:19.340Z,87.98
2023-01-29T03:43:19.309Z,88.09
2023-01-29T03:44:19.291Z,87.98
2023-01-29T03:45:22.277Z,87.88
2023-01-29T03:46:22.279Z,88.19
2023-01-29T03:47:19.266Z,88.09
2023-01-29T03:48:19.302Z,88.19
2023-01-29T03:49:19.217Z,88.81
2023-01-29T03:50:19.285Z,88.40
2023-01-29T03:51:19.193Z,88.85
2023-01-29T03:52:19.192Z,89.02
2023-01-29T03:53:19.161Z,89.23
2023-01-29T03:54:19.185Z,89.12
2023-01-29T03:55:19.140Z,88.92
2023-01-29T03:56:19.131Z,88.92
2023-01-29T03:57:19.114Z,89.54
2023-01-29T03:58:19.165Z,89.64
2023-01-29T03:59:19.083Z,89.64
2023-01-29T04:00:19.371Z,89.64
2023-01-29T04:01:19.073Z,89.95
2023-01-29T04:02:19.049Z,89.85
2023-01-29T04:03:19.017Z,89.85
2023-01-29T04:04:19.067Z,90.06
2023-01-29T04:05:22.007Z,90.47
2023-01-29T04:06:22.004Z,90.47
2023-01-29T04:07:19.022Z,90.47
2023-01-29T04:08:18.977Z,90.37
2023-01-29T04:09:18.972Z,90.47
2023-01-29T04:10:18.951Z,90.47
2023-01-29T04:11:18.919Z,90.58
2023-01-29T04:12:18.910Z,90.58
2023-01-29T04:13:18.933Z,91.20
2023-01-29T04:14:18.876Z,91.31
2023-01-29T04:15:18.858Z,91.52
2023-01-29T04:16:18.930Z,91.31
2023-01-29T04:17:18.834Z,91.41
2023-01-29T04:18:18.838Z,91.52
2023-01-29T04:19:18.820Z,91.20
2023-01-29T04:20:19.171Z,91.41
2023-01-29T04:21:18.779Z,91.31
2023-01-29T04:22:18.839Z,91.62
2023-01-29T04:23:18.761Z,91.93
2023-01-29T04:24:18.816Z,91.62
2023-01-29T04:25:21.747Z,91.72
2023-01-29T04:26:21.790Z,91.93
2023-01-29T04:27:18.718Z,91.83
2023-01-29T04:28:18.779Z,91.62
2023-01-29T04:29:18.680Z,91.41
2023-01-29T04:30:18.896Z,91.72
2023-01-29T04:31:18.797Z,91.83
2023-01-29T04:32:18.659Z,91.52
2023-01-29T04:33:18.634Z,91.62
2023-01-29T04:34:18.641Z,91.93
2023-01-29T04:35:18.592Z,91.83
2023-01-29T04:36:18.597Z,91.52
2023-01-29T04:37:18.577Z,91.72
2023-01-29T04:38:18.571Z,91.72
2023-01-29T04:39:18.622Z,91.62
2023-01-29T04:40:18.857Z,91.31
2023-01-29T04:41:18.535Z,91.41
2023-01-29T04:42:18.521Z,91.62
2023-01-29T04:43:18.504Z,91.72
2023-01-29T04:44:18.494Z,91.62
2023-01-29T04:45:21.511Z,92.03
2023-01-29T04:46:21.472Z,91.72
2023-01-29T04:47:18.515Z,91.83
2023-01-29T04:48:18.435Z,92.03
2023-01-29T04:49:18.406Z,92.03
2023-01-29T04:50:18.806Z,92.45
2023-01-29T04:51:18.381Z,92.24
2023-01-29T04:52:18.375Z,92.03
2023-01-29T04:53:18.354Z,92.03
2023-01-29T04:54:18.345Z,92.03
2023-01-29T04:55:18.360Z,92.45
2023-01-29T04:56:18.325Z,92.55
2023-01-29T04:57:18.368Z,92.55
2023-01-29T04:58:18.299Z,92.45
2023-01-29T04:59:18.266Z,92.35
2023-01-29T05:00:18.602Z,92.55
2023-01-29T05:01:18.316Z,92.76
2023-01-29T05:02:18.239Z,92.86
2023-01-29T05:03:18.251Z,92.55
2023-01-29T05:04:18.209Z,92.55
2023-01-29T05:05:21.178Z,92.35
2023-01-29T05:06:21.244Z,92.45
2023-01-29T05:07:18.181Z,92.76
2023-01-29T05:08:18.151Z,92.66
2023-01-29T05:09:18.144Z,92.24
2023-01-29T05:10:18.473Z,92.14
2023-01-29T05:11:18.119Z,92.03
2023-01-29T05:12:18.135Z,92.35
2023-01-29T05:13:18.080Z,92.24
2023-01-29T05:14:18.064Z,92.03
2023-01-29T05:15:18.056Z,92.14
2023-01-29T05:16:18.138Z,92.35
2023-01-29T05:17:18.044Z,92.35
2023-01-29T05:18:18.031Z,92.35
2023-01-29T05:19:18.010Z,92.35
2023-01-29T05:20:18.422Z,91.93
2023-01-29T05:21:17.988Z,91.83
2023-01-29T05:22:17.999Z,91.83
2023-01-29T05:23:17.951Z,92.03
2023-01-29T05:24:18.012Z,91.83
2023-01-29T05:25:20.937Z,92.14
2023-01-29T05:26:20.924Z,92.14
2023-01-29T05:27:17.953Z,92.14
2023-01-29T05:28:17.889Z,91.89
2023-01-29T05:29:17.854Z,91.78
2023-01-29T05:30:18.254Z,91.89
2023-01-29T05:31:17.959Z,91.99
2023-01-29T05:32:17.815Z,92.30
2023-01-29T05:33:17.854Z,92.51
2023-01-29T05:34:17.804Z,92.20
2023-01-29T05:35:17.775Z,92.45
2023-01-29T05:36:17.783Z,92.93
2023-01-29T05:37:17.797Z,92.86
2023-01-29T05:38:17.814Z,93.07
2023-01-29T05:39:17.725Z,93.07
2023-01-29T05:40:18.104Z,92.97
2023-01-29T05:41:17.710Z,93.29
2023-01-29T05:42:17.700Z,93.07
2023-01-29T05:43:17.701Z,92.86
2023-01-29T05:44:17.697Z,92.97
2023-01-29T05:45:20.646Z,92.97
2023-01-29T05:46:20.706Z,92.97
2023-01-29T05:47:17.632Z,92.76
2023-01-29T05:48:17.630Z,92.45
2023-01-29T05:49:17.637Z,92.24
2023-01-29T05:50:17.928Z,91.83
2023-01-29T05:51:17.568Z,91.31
2023-01-29T05:52:17.568Z,91.20
2023-01-29T05:53:17.620Z,90.89
2023-01-29T05:54:17.552Z,90.79
2023-01-29T05:55:17.559Z,90.58
2023-01-29T05:56:17.491Z,90.69
2023-01-29T05:57:17.506Z,90.79
2023-01-29T05:58:17.477Z,90.47
2023-01-29T05:59:17.483Z,90.26
2023-01-29T06:00:17.828Z,90.06
2023-01-29T06:01:17.479Z,90.06
2023-01-29T06:02:17.421Z,90.06
2023-01-29T06:03:17.487Z,89.95
2023-01-29T06:04:17.395Z,89.75
2023-01-29T06:05:20.370Z,89.54
2023-01-29T06:06:20.414Z,89.54
2023-01-29T06:07:17.358Z,89.12
2023-01-29T06:08:17.342Z,89.12
2023-01-29T06:09:24.317Z,89.02
2023-01-29T06:10:17.667Z,88.71
2023-01-29T06:11:17.329Z,88.60
2023-01-29T06:12:17.252Z,88.40
2023-01-29T06:13:17.250Z,88.29
2023-01-29T06:14:17.238Z,88.29
2023-01-29T06:15:17.223Z,87.77
2023-01-29T06:16:17.292Z,87.73
2023-01-29T06:17:17.243Z,87.42
2023-01-29T06:18:17.176Z,87.42
2023-01-29T06:19:17.180Z,87.32
2023-01-29T06:20:17.561Z,87.21
2023-01-29T06:21:19.905Z,86.90
2023-01-29T06:22:17.125Z,86.80
2023-01-29T06:23:17.168Z,87.01
2023-01-29T06:24:17.192Z,86.69
2023-01-29T06:25:20.154Z,86.69
2023-01-29T06:26:20.086Z,86.49
2023-01-29T06:27:17.095Z,86.27
2023-01-29T06:28:17.066Z,86.17
2023-01-29T06:29:17.052Z,85.86
2023-01-29T06:30:17.394Z,85.75
2023-01-29T06:32:18.079Z,85.34
2023-01-29T06:33:16.976Z,85.34
2023-01-29T06:34:17.008Z,84.82
2023-01-29T06:35:16.946Z,84.82
2023-01-29T06:36:16.976Z,84.61
2023-01-29T06:37:16.928Z,84.20
2023-01-29T06:38:16.985Z,83.99
2023-01-29T06:39:16.908Z,83.78
2023-01-29T06:40:17.230Z,83.47
2023-01-29T06:41:16.870Z,83.16
2023-01-29T06:42:16.868Z,83.05
2023-01-29T06:43:16.838Z,82.84
2023-01-29T06:44:16.855Z,82.43
2023-01-29T06:45:19.848Z,82.43
2023-01-29T06:46:19.833Z,82.22
2023-01-29T06:47:16.790Z,82.12
2023-01-29T06:48:16.799Z,82.01
2023-01-29T06:49:16.775Z,81.70
2023-01-29T06:50:17.271Z,81.60
2023-01-29T06:51:16.730Z,81.49
2023-01-29T06:52:16.730Z,81.18
2023-01-29T06:53:16.706Z,81.18
2023-01-29T06:54:16.701Z,80.98
2023-01-29T06:55:16.703Z,80.87
2023-01-29T06:56:16.760Z,80.35
2023-01-29T06:57:16.658Z,80.77
2023-01-29T06:58:16.639Z,80.56
2023-01-29T06:59:16.655Z,80.04
2023-01-29T07:00:16.995Z,79.83
2023-01-29T07:01:33.433Z,79.83
2023-01-29T07:02:17.686Z,79.72
2023-01-29T07:03:16.570Z,79.52
2023-01-29T07:04:16.570Z,79.31
2023-01-29T07:05:19.541Z,79.41
2023-01-29T07:06:19.554Z,79.41
2023-01-29T07:07:16.523Z,79.21
2023-01-29T07:08:16.505Z,79.10
2023-01-29T07:09:16.514Z,79.10
2023-01-29T07:10:16.829Z,79.31
2023-01-29T07:11:16.463Z,78.89
2023-01-29T07:12:16.459Z,78.79
2023-01-29T07:13:16.433Z,78.48
2023-01-29T07:14:16.463Z,78.38
2023-01-29T07:15:16.404Z,77.75
2023-01-29T07:16:16.428Z,77.65
2023-01-29T07:17:16.381Z,77.03
2023-01-29T07:18:16.366Z,76.82
2023-01-29T07:19:16.367Z,76.72
2023-01-29T07:20:16.688Z,76.40
2023-01-29T07:21:16.331Z,76.40
2023-01-29T07:22:16.323Z,76.19
2023-01-29T07:23:16.314Z,76.09
2023-01-29T07:24:16.436Z,75.88
2023-01-29T07:25:19.285Z,75.78
2023-01-29T07:26:19.273Z,75.67
2023-01-29T07:27:16.254Z,75.64
2023-01-29T07:28:16.228Z,75.54
2023-01-29T07:29:16.215Z,75.22
2023-01-29T07:30:16.598Z,75.32
2023-01-29T07:31:16.263Z,75.12
2023-01-29T07:32:16.250Z,75.22
2023-01-29T07:33:16.163Z,75.12
2023-01-29T07:34:16.156Z,75.22
2023-01-29T07:35:16.159Z,75.12
2023-01-29T07:36:16.124Z,75.01
2023-01-29T07:37:16.107Z,74.70
2023-01-29T07:38:16.105Z,74.70
2023-01-29T07:39:16.081Z,74.39
2023-01-29T07:40:16.415Z,74.49
2023-01-29T07:41:16.047Z,74.39
2023-01-29T07:42:16.041Z,74.60
2023-01-29T07:43:16.031Z,74.60
2023-01-29T07:44:16.011Z,74.49
2023-01-29T07:45:19.031Z,74.70
2023-01-29T07:46:19.007Z,74.49
2023-01-29T07:47:17.262Z,74.49
2023-01-29T07:48:15.965Z,74.49
2023-01-29T07:49:15.964Z,74.49
2023-01-29T07:50:16.308Z,74.29
2023-01-29T07:51:15.980Z,74.18
2023-01-29T07:52:15.919Z,74.18
2023-01-29T07:53:15.894Z,73.97
2023-01-29T07:54:15.870Z,73.87
2023-01-29T07:55:15.862Z,74.08
2023-01-29T07:56:15.885Z,73.97
2023-01-29T07:57:15.904Z,73.66
2023-01-29T07:58:15.830Z,73.66
2023-01-29T07:59:15.816Z,73.56
2023-01-29T08:00:16.178Z,73.56
2023-01-29T08:01:15.870Z,73.25
2023-01-29T08:02:15.833Z,73.25
2023-01-29T08:03:15.825Z,73.22
2023-01-29T08:04:15.742Z,73.53
2023-01-29T08:05:18.732Z,73.32
2023-01-29T08:06:18.746Z,73.22
2023-01-29T08:07:15.705Z,73.32
2023-01-29T08:08:15.693Z,73.43
2023-01-29T08:09:15.735Z,73.43
2023-01-29T08:10:15.973Z,73.53
2023-01-29T08:11:15.657Z,73.53
2023-01-29T08:12:15.642Z,73.32
2023-01-29T08:13:15.660Z,73.74
2023-01-29T08:14:15.623Z,73.63
2023-01-29T08:15:15.631Z,73.94
2023-01-29T08:16:15.669Z,73.94
2023-01-29T08:17:15.577Z,73.84
2023-01-29T08:18:15.590Z,73.74
2023-01-29T08:19:15.546Z,73.43
2023-01-29T08:20:15.783Z,73.63
2023-01-29T08:21:15.524Z,73.63
2023-01-29T08:22:15.524Z,73.32
2023-01-29T08:23:15.524Z,73.32
2023-01-29T08:24:15.482Z,73.53
2023-01-29T08:25:18.458Z,73.53
2023-01-29T08:26:18.479Z,73.63
2023-01-29T08:27:15.440Z,73.94
2023-01-29T08:28:15.425Z,73.74
2023-01-29T08:29:15.410Z,73.74
2023-01-29T08:30:15.875Z,73.74
2023-01-29T08:31:15.482Z,73.74
2023-01-29T08:32:15.369Z,73.84
2023-01-29T08:33:17.538Z,73.63
2023-01-29T08:34:15.346Z,73.74
2023-01-29T08:35:15.326Z,73.74
2023-01-29T08:36:15.340Z,73.84
2023-01-29T08:37:15.304Z,73.63
2023-01-29T08:38:15.286Z,73.63
2023-01-29T08:39:15.274Z,73.63
2023-01-29T08:40:15.257Z,73.43
2023-01-29T08:41:15.295Z,73.43
2023-01-29T08:42:15.236Z,73.32
2023-01-29T08:43:15.222Z,73.32
2023-01-29T08:44:15.199Z,73.32
2023-01-29T08:45:18.204Z,73.22
2023-01-29T08:46:18.288Z,73.43
2023-01-29T08:47:15.165Z,73.11
2023-01-29T08:48:15.141Z,73.00
2023-01-29T08:49:15.135Z,73.00
2023-01-29T08:50:15.434Z,72.80
2023-01-29T08:51:15.118Z,72.69
2023-01-29T08:52:15.150Z,72.69
2023-01-29T08:53:15.099Z,72.59
2023-01-29T08:54:15.117Z,73.11
2023-01-29T08:55:15.491Z,72.80
2023-01-29T08:56:15.040Z,72.80
2023-01-29T08:57:15.028Z,72.90
2023-01-29T08:58:15.028Z,72.97
2023-01-29T08:59:15.001Z,73.18
2023-01-29T09:00:15.310Z,73.18
2023-01-29T09:01:15.039Z,73.28
2023-01-29T09:02:15.008Z,73.28
2023-01-29T09:03:14.967Z,73.39
2023-01-29T09:04:14.936Z,73.70
2023-01-29T09:05:18.417Z,73.70
2023-01-29T09:06:17.933Z,74.22
2023-01-29T09:07:14.909Z,74.43
2023-01-29T09:08:14.876Z,74.53
2023-01-29T09:09:14.895Z,75.05
2023-01-29T09:10:14.856Z,75.15
2023-01-29T09:11:14.893Z,75.78
2023-01-29T09:12:14.831Z,76.09
2023-01-29T09:13:14.820Z,75.88
2023-01-29T09:14:14.832Z,76.50
2023-01-29T09:15:15.344Z,76.81
2023-01-29T09:16:14.800Z,77.12
2023-01-29T09:17:14.795Z,77.85
2023-01-29T09:18:14.751Z,77.95
2023-01-29T09:19:14.736Z,78.47
2023-01-29T09:20:14.730Z,78.68
2023-01-29T09:21:14.775Z,79.20
2023-01-29T09:22:14.697Z,79.27
2023-01-29T09:23:14.708Z,80.66
2023-01-29T09:24:14.669Z,81.07
2023-01-29T09:25:18.012Z,81.38
2023-01-29T09:26:17.772Z,81.56
2023-01-29T09:27:14.677Z,81.97
2023-01-29T09:28:14.647Z,82.18
2023-01-29T09:29:14.616Z,82.28
2023-01-29T09:30:14.650Z,83.01
2023-01-29T09:31:14.670Z,83.32
2023-01-29T09:32:15.590Z,83.53
2023-01-29T09:33:14.652Z,83.84
2023-01-29T09:34:14.551Z,84.15
2023-01-29T09:35:14.775Z,84.46
2023-01-29T09:36:14.521Z,84.15
2023-01-29T09:37:14.507Z,85.19
2023-01-29T09:38:14.488Z,86.22
2023-01-29T09:39:14.509Z,86.22
2023-01-29T09:40:14.490Z,86.12
2023-01-29T09:41:14.462Z,86.12
2023-01-29T09:42:14.440Z,86.18
2023-01-29T09:43:14.421Z,86.49
2023-01-29T09:44:14.451Z,87.01
2023-01-29T09:45:17.738Z,87.43
2023-01-29T09:46:17.458Z,87.63
2023-01-29T09:47:14.379Z,87.95
2023-01-29T09:48:14.359Z,88.67
2023-01-29T09:49:14.360Z,89.29
2023-01-29T09:50:14.359Z,90.02
2023-01-29T09:51:14.322Z,90.33
2023-01-29T09:52:14.336Z,90.75
2023-01-29T09:53:14.341Z,91.47
2023-01-29T09:54:14.283Z,92.10
2023-01-29T09:55:14.845Z,92.20
2023-01-29T09:56:14.263Z,92.41
2023-01-29T09:57:14.239Z,92.30
2023-01-29T09:58:14.239Z,92.20
2023-01-29T09:59:14.237Z,92.41
2023-01-29T10:00:14.210Z,93.13
2023-01-29T10:01:14.319Z,93.13
2023-01-29T10:02:14.367Z,93.33
2023-01-29T10:03:14.201Z,92.93
2023-01-29T10:04:14.171Z,93.33
2023-01-29T10:05:17.369Z,93.54
2023-01-29T10:06:17.136Z,94.06
2023-01-29T10:07:14.165Z,94.06
2023-01-29T10:08:14.087Z,93.85
2023-01-29T10:09:14.091Z,94.27
2023-01-29T10:10:14.072Z,95.00
2023-01-29T10:11:14.046Z,95.41
2023-01-29T10:12:14.073Z,95.16
2023-01-29T10:13:14.045Z,95.26
2023-01-29T10:14:14.012Z,95.89
2023-01-29T10:15:14.202Z,96.30
2023-01-29T10:16:13.996Z,96.09
2023-01-29T10:17:14.044Z,96.61
2023-01-29T10:18:13.995Z,97.86
2023-01-29T10:19:13.950Z,98.07
2023-01-29T10:20:13.946Z,97.86
2023-01-29T10:21:13.919Z,98.58
2023-01-29T10:22:13.911Z,98.38
2023-01-29T10:23:13.916Z,98.58
2023-01-29T10:24:13.916Z,98.90
2023-01-29T10:25:17.194Z,99.93
2023-01-29T10:26:16.888Z,99.72
2023-01-29T10:27:13.838Z,99.21
2023-01-29T10:28:13.865Z,98.90
2023-01-29T10:29:13.820Z,98.69
2023-01-29T10:30:13.796Z,98.38
2023-01-29T10:31:13.947Z,98.07
2023-01-29T10:32:13.821Z,98.38
2023-01-29T10:33:13.784Z,97.75
2023-01-29T10:34:13.738Z,97.65
2023-01-29T10:35:14.065Z,97.65
2023-01-29T10:36:13.741Z,97.96
2023-01-29T10:37:13.727Z,98.79
2023-01-29T10:38:13.698Z,98.79
2023-01-29T10:39:13.708Z,98.69
2023-01-29T10:40:13.693Z,99.31
2023-01-29T10:41:13.652Z,99.21
2023-01-29T10:42:13.638Z,99.10
2023-01-29T10:43:13.620Z,99.68
2023-01-29T10:44:13.663Z,99.37
2023-01-29T10:45:16.891Z,99.88
2023-01-29T10:46:16.601Z,99.47
2023-01-29T10:47:13.647Z,99.99
2023-01-29T10:48:13.558Z,99.63
2023-01-29T10:49:13.548Z,99.99
2023-01-29T10:50:13.593Z,99.99
2023-01-29T10:51:13.521Z,99.99
2023-01-29T10:52:13.513Z,99.99
2023-01-29T10:53:13.483Z,99.99
2023-01-29T10:54:13.482Z,99.99
2023-01-29T10:55:13.618Z,99.99
2023-01-29T10:56:22.271Z,99.99
2023-01-29T10:57:14.434Z,99.99
2023-01-29T10:58:13.426Z,99.99
2023-01-29T10:59:13.415Z,99.99
2023-01-29T11:00:13.460Z,99.99
2023-01-29T11:01:13.414Z,99.99
2023-01-29T11:02:13.385Z,99.99
2023-01-29T11:03:26.439Z,99.99
2023-01-29T11:04:14.334Z,99.99
2023-01-29T11:05:16.761Z,99.99
2023-01-29T11:06:16.358Z,99.99
2023-01-29T11:07:13.296Z,99.99
2023-01-29T11:08:13.293Z,99.99
2023-01-29T11:09:13.271Z,99.99
2023-01-29T11:10:13.274Z,99.99
2023-01-29T11:11:13.267Z,99.99
2023-01-29T11:12:13.227Z,99.99
2023-01-29T11:13:13.215Z,99.99
2023-01-29T11:14:13.206Z,99.99
2023-01-29T11:15:13.199Z,99.99
2023-01-29T11:16:13.245Z,99.99
2023-01-29T11:17:13.187Z,99.99
2023-01-29T11:18:13.147Z,99.99
2023-01-29T11:19:13.143Z,99.99
2023-01-29T11:20:13.121Z,99.99
2023-01-29T11:21:13.111Z,99.99
2023-01-29T11:22:13.130Z,99.99
2023-01-29T11:23:13.089Z,99.99
2023-01-29T11:24:13.067Z,99.99
2023-01-29T11:25:16.058Z,99.99
2023-01-29T11:26:16.071Z,99.99
2023-01-29T11:27:13.093Z,99.99
2023-01-29T11:28:13.019Z,99.99
2023-01-29T11:29:13.002Z,99.99
2023-01-29T11:30:12.991Z,99.99
2023-01-29T11:31:13.100Z,99.99
2023-01-29T11:32:12.967Z,99.99
2023-01-29T11:33:12.977Z,99.99
2023-01-29T11:34:12.936Z,99.99
2023-01-29T11:35:12.931Z,99.99
2023-01-29T11:36:12.909Z,99.99
2023-01-29T11:37:12.922Z,99.99
2023-01-29T11:38:12.911Z,99.99
2023-01-29T11:39:12.875Z,99.99
2023-01-29T11:40:12.851Z,99.99
2023-01-29T11:41:12.839Z,99.99
2023-01-29T11:42:14.172Z,99.99
2023-01-29T11:43:12.865Z,99.99
2023-01-29T11:44:12.804Z,99.99
2023-01-29T11:45:15.778Z,99.99
2023-01-29T11:46:15.843Z,99.99
2023-01-29T11:47:12.777Z,99.99
2023-01-29T11:48:12.766Z,99.99
2023-01-29T11:49:20.496Z,99.99
2023-01-29T11:50:13.745Z,99.99
2023-01-29T11:51:12.697Z,99.99
2023-01-29T11:52:12.695Z,99.99
2023-01-29T11:53:12.664Z,99.99
2023-01-29T11:54:12.661Z,99.99
2023-01-29T11:55:12.685Z,99.94
2023-01-29T11:56:12.634Z,99.01
2023-01-29T11:57:12.643Z,98.49
2023-01-29T11:58:12.606Z,98.18
2023-01-29T11:59:12.612Z,98.70
2023-01-29T12:00:12.576Z,98.28
2023-01-29T12:01:12.577Z,98.08
2023-01-29T12:02:12.578Z,97.35
2023-01-29T12:03:12.570Z,96.73
2023-01-29T12:04:12.582Z,96.73
2023-01-29T12:05:15.511Z,96.83
2023-01-29T12:06:15.509Z,97.04
2023-01-29T12:07:12.510Z,96.62
2023-01-29T12:08:12.475Z,96.62
2023-01-29T12:09:12.452Z,96.62
2023-01-29T12:10:21.121Z,96.42
2023-01-29T12:11:12.424Z,96.01
2023-01-29T12:12:12.447Z,95.70
2023-01-29T12:13:12.395Z,96.21
2023-01-29T12:14:12.392Z,96.83
2023-01-29T12:15:12.374Z,96.98
2023-01-29T12:16:12.404Z,97.04
2023-01-29T12:17:12.387Z,96.73
2023-01-29T12:18:12.344Z,97.50
2023-01-29T12:19:12.353Z,97.09
2023-01-29T12:20:12.314Z,96.94
2023-01-29T12:21:12.294Z,96.83
2023-01-29T12:22:12.325Z,96.94
2023-01-29T12:23:12.273Z,96.52
2023-01-29T12:24:12.280Z,96.83
2023-01-29T12:25:15.237Z,97.14
2023-01-29T12:26:15.255Z,97.66
2023-01-29T12:27:12.217Z,98.70
2023-01-29T12:28:12.252Z,98.91
2023-01-29T12:29:12.187Z,98.80
2023-01-29T12:30:12.176Z,98.80
2023-01-29T12:31:12.194Z,99.01
2023-01-29T12:32:12.164Z,98.80
2023-01-29T12:33:12.134Z,98.70
2023-01-29T12:34:12.154Z,99.63
2023-01-29T12:35:12.099Z,99.84
2023-01-29T12:36:12.094Z,99.94
2023-01-29T12:37:12.094Z,99.94
2023-01-29T12:38:12.092Z,99.99
2023-01-29T12:39:12.096Z,99.99
2023-01-29T12:40:12.081Z,99.99
2023-01-29T12:41:12.025Z,99.99
2023-01-29T12:42:12.000Z,99.99
2023-01-29T12:43:11.992Z,99.99
2023-01-29T12:44:11.981Z,99.99
2023-01-29T12:45:14.977Z,99.99
2023-01-29T12:46:14.959Z,99.99
2023-01-29T12:47:11.920Z,99.99
2023-01-29T12:48:11.908Z,99.99
2023-01-29T12:49:11.958Z,99.99
2023-01-29T12:50:12.050Z,99.99
2023-01-29T12:51:11.862Z,99.99
2023-01-29T12:52:11.850Z,99.99
2023-01-29T12:53:11.841Z,99.99